createdAt,value
2023-05-14T00:02:33.866Z,99301.03
2023-05-14T00:06:37.876Z,99304.16
2023-05-14T00:10:40.506Z,99304.25
2023-05-14T00:14:43.127Z,99300.78
2023-05-14T00:18:45.825Z,99294.94
2023-05-14T00:22:49.796Z,99293.06
2023-05-14T00:26:52.398Z,99292.88
2023-05-14T00:30:55.998Z,99293.69
2023-05-14T00:34:58.849Z,99279.84
2023-05-14T00:39:03.710Z,99286.69
2023-05-14T00:43:06.342Z,99274.56
2023-05-14T00:47:09.333Z,99274.88
2023-05-14T00:51:12.176Z,99273.47
2023-05-14T00:55:17.565Z,99266.09
2023-05-14T00:59:20.207Z,99268.34
2023-05-14T01:03:22.884Z,99267.91
2023-05-14T01:07:32.259Z,99266.66
2023-05-14T01:11:41.402Z,99267.78
2023-05-14T01:15:45.744Z,99270.19
2023-05-14T01:19:48.849Z,99274.34
2023-05-14T01:23:52.807Z,99267.84
2023-05-14T01:27:59.014Z,99250.66
2023-05-14T01:32:02.084Z,99267.66
2023-05-14T01:36:05.210Z,99254.94
2023-05-14T01:40:10.995Z,99261.25
2023-05-14T01:44:13.860Z,99269.59
2023-05-14T01:48:16.638Z,99242.03
2023-05-14T01:52:21.215Z,99267.50
2023-05-14T01:56:25.807Z,99254.88
2023-05-14T02:00:28.460Z,99259.25
2023-05-14T02:04:31.079Z,99253.41
2023-05-14T02:08:33.701Z,99250.28
2023-05-14T02:12:37.903Z,99235.59
2023-05-14T02:16:40.932Z,99245.09
2023-05-14T02:20:43.580Z,99248.69
2023-05-14T02:24:46.188Z,99234.06
2023-05-14T02:28:50.161Z,99242.03
2023-05-14T02:32:52.900Z,99242.19
2023-05-14T02:36:55.626Z,99244.22
2023-05-14T02:40:58.236Z,99245.88
2023-05-14T02:45:02.340Z,99237.97
2023-05-14T02:49:04.944Z,99240.28
2023-05-14T02:53:08.188Z,99234.78
2023-05-14T02:57:10.798Z,99237.53
2023-05-14T03:01:15.053Z,99237.75
2023-05-14T03:05:18.150Z,99235.84
2023-05-14T03:09:20.948Z,99235.63
2023-05-14T03:13:23.566Z,99238.13
2023-05-14T03:17:27.547Z,99237.25
2023-05-14T03:21:30.155Z,99230.59
2023-05-14T03:25:32.812Z,99219.00
2023-05-14T03:29:35.421Z,99228.69
2023-05-14T03:33:39.518Z,99222.59
2023-05-14T03:37:42.120Z,99223.75
2023-05-14T03:41:44.717Z,99222.31
2023-05-14T03:45:52.218Z,99226.75
2023-05-14T03:49:56.261Z,99225.06
2023-05-14T03:53:59.033Z,99224.84
2023-05-14T03:58:02.027Z,99225.75
2023-05-14T04:02:04.926Z,99213.91
2023-05-14T04:06:09.052Z,99225.38
2023-05-14T04:10:11.880Z,99223.00
2023-05-14T04:14:14.493Z,99218.97
2023-05-14T04:18:17.206Z,99225.66
2023-05-14T04:22:21.153Z,99229.47
2023-05-14T04:26:23.599Z,99226.13
2023-05-14T04:30:26.420Z,99222.97
2023-05-14T04:34:29.013Z,99232.34
2023-05-14T04:38:33.045Z,99219.25
2023-05-14T04:42:35.652Z,99229.31
2023-05-14T04:46:38.256Z,99226.56
2023-05-14T04:50:40.878Z,99220.00
2023-05-14T04:54:44.940Z,99222.41
2023-05-14T04:58:47.646Z,99219.50
2023-05-14T05:02:50.695Z,99221.53
2023-05-14T05:06:53.301Z,99228.56
2023-05-14T05:10:57.263Z,99221.25
2023-05-14T05:14:59.903Z,99227.19
2023-05-14T05:19:02.576Z,99217.09
2023-05-14T05:23:05.194Z,99215.16
2023-05-14T05:27:09.242Z,99220.50
2023-05-14T05:31:11.922Z,99211.41
2023-05-14T05:35:14.575Z,99213.44
2023-05-14T05:39:17.193Z,99208.06
2023-05-14T05:43:21.127Z,99211.50
2023-05-14T05:47:23.720Z,99221.78
2023-05-14T05:51:26.420Z,99219.50
2023-05-14T05:55:29.327Z,99216.47
2023-05-14T05:59:33.301Z,99227.16
2023-05-14T06:03:35.916Z,99224.72
2023-05-14T06:07:38.556Z,99221.69
2023-05-14T06:11:41.142Z,99218.88
2023-05-14T06:15:45.123Z,99214.91
2023-05-14T06:19:47.776Z,99222.94
2023-05-14T06:23:50.405Z,99228.56
2023-05-14T06:27:52.994Z,99226.13
2023-05-14T06:31:58.911Z,99232.38
2023-05-14T06:36:03.910Z,99220.84
2023-05-14T06:40:07.921Z,99237.16
2023-05-14T06:44:10.931Z,99221.41
2023-05-14T06:48:14.984Z,99227.06
2023-05-14T06:52:17.671Z,99228.69
2023-05-14T06:56:21.680Z,99217.38
2023-05-14T07:00:24.998Z,99219.66
2023-05-14T07:04:29.324Z,99216.31
2023-05-14T07:08:31.976Z,99212.50
2023-05-14T07:12:34.620Z,99213.34
2023-05-14T07:16:37.814Z,99206.41
2023-05-14T07:20:41.990Z,99210.16
2023-05-14T07:24:44.585Z,99200.34
2023-05-14T07:28:47.104Z,99203.78
2023-05-14T07:32:49.747Z,99199.94
2023-05-14T07:36:53.926Z,99195.81
2023-05-14T07:40:56.524Z,99187.41
2023-05-14T07:44:59.123Z,99188.06
2023-05-14T07:49:01.748Z,99181.97
2023-05-14T07:53:05.795Z,99184.31
2023-05-14T07:57:08.577Z,99182.22
2023-05-14T08:01:12.723Z,99172.38
2023-05-14T08:05:15.908Z,99172.00
2023-05-14T08:09:19.876Z,99177.56
2023-05-14T08:13:22.491Z,99172.59
2023-05-14T08:17:25.451Z,99170.00
2023-05-14T08:21:28.733Z,99171.28
2023-05-14T08:25:32.761Z,99166.53
2023-05-14T08:29:35.376Z,99167.66
2023-05-14T08:33:38.045Z,99172.94
2023-05-14T08:37:40.751Z,99169.84
2023-05-14T08:41:44.740Z,99159.91
2023-05-14T08:45:47.826Z,99175.72
2023-05-14T08:49:56.064Z,99168.38
2023-05-14T08:54:00.349Z,99168.66
2023-05-14T08:58:04.484Z,99172.22
2023-05-14T09:02:07.861Z,99170.09
2023-05-14T09:06:10.826Z,99164.78
2023-05-14T09:10:15.397Z,99154.38
2023-05-14T09:14:20.064Z,99142.38
2023-05-14T09:18:22.623Z,99150.53
2023-05-14T09:22:25.013Z,99153.31
2023-05-14T09:26:28.408Z,99140.91
2023-05-14T09:30:34.175Z,99141.13
2023-05-14T09:34:38.289Z,99144.38
2023-05-14T09:38:40.924Z,99128.50
2023-05-14T09:42:43.676Z,99127.84
2023-05-14T09:46:48.771Z,99130.94
2023-05-14T09:50:52.176Z,99131.66
2023-05-14T09:54:54.922Z,99116.13
2023-05-14T09:58:57.744Z,99109.88
2023-05-14T10:03:05.990Z,99104.25
2023-05-14T10:07:08.855Z,99104.88
2023-05-14T10:11:14.984Z,99106.59
2023-05-14T10:15:19.495Z,99107.81
2023-05-14T10:19:25.931Z,99100.31
2023-05-14T10:23:28.664Z,99103.63
2023-05-14T10:27:31.483Z,99096.34
2023-05-14T10:31:47.934Z,99090.69
2023-05-14T10:35:57.685Z,99096.22
2023-05-14T10:40:01.177Z,99100.38
2023-05-14T10:44:09.529Z,99091.75
2023-05-14T10:48:12.267Z,99094.38
2023-05-14T10:52:16.658Z,99084.78
2023-05-14T10:56:19.821Z,99088.16
2023-05-14T11:00:27.691Z,99078.31
2023-05-14T11:04:30.383Z,99075.63
2023-05-14T11:08:35.161Z,99068.03
2023-05-14T11:12:38.885Z,99056.13
2023-05-14T11:16:42.396Z,99056.19
2023-05-14T11:20:45.087Z,99046.88
2023-05-14T11:24:49.668Z,99043.28
2023-05-14T11:28:52.433Z,99046.28
2023-05-14T11:32:55.221Z,99042.47
2023-05-14T11:36:57.874Z,99038.50
2023-05-14T11:41:04.313Z,99044.22
2023-05-14T11:45:08.116Z,99031.81
2023-05-14T11:49:11.433Z,99020.00
2023-05-14T11:53:18.052Z,99012.13
2023-05-14T11:57:23.124Z,99010.47
2023-05-14T12:01:25.964Z,99013.66
2023-05-14T12:05:28.584Z,98996.66
2023-05-14T12:09:31.337Z,98996.34
2023-05-14T12:13:35.305Z,98994.50
2023-05-14T12:17:39.022Z,99001.31
2023-05-14T12:21:42.217Z,98986.81
2023-05-14T12:25:51.293Z,98980.72
2023-05-14T12:30:19.233Z,98979.00
2023-05-14T12:34:23.067Z,98984.59
2023-05-14T12:38:25.582Z,99002.69
2023-05-14T12:42:28.166Z,99019.50
2023-05-14T12:46:32.232Z,99009.00
2023-05-14T12:50:34.981Z,99001.34
2023-05-14T12:54:41.677Z,98999.28
2023-05-14T12:58:46.671Z,98977.03
2023-05-14T13:02:50.784Z,98981.00
2023-05-14T13:06:54.505Z,98982.38
2023-05-14T13:10:58.870Z,98990.47
2023-05-14T13:15:01.537Z,98963.59
2023-05-14T13:19:05.649Z,98972.28
2023-05-14T13:23:08.459Z,98972.59
2023-05-14T13:27:11.109Z,98977.94
2023-05-14T13:31:17.409Z,98967.44
2023-05-14T13:35:21.693Z,98956.16
2023-05-14T13:39:27.198Z,98944.66
2023-05-14T13:43:30.732Z,98943.91
2023-05-14T13:47:33.646Z,98939.72
2023-05-14T13:51:37.708Z,98935.41
2023-05-14T13:55:40.405Z,98925.19
2023-05-14T13:59:43.341Z,98924.44
2023-05-14T14:03:45.995Z,98919.56
2023-05-14T14:07:51.533Z,98916.56
2023-05-14T14:11:55.638Z,98899.91
2023-05-14T14:15:59.704Z,98891.13
2023-05-14T14:20:05.197Z,98887.81
2023-05-14T14:24:09.282Z,98888.03
2023-05-14T14:28:11.976Z,98888.44
2023-05-14T14:32:14.677Z,98888.75
2023-05-14T14:36:17.339Z,98868.56
2023-05-14T14:40:23.770Z,98859.03
2023-05-14T14:44:26.445Z,98859.91
2023-05-14T14:48:31.480Z,98856.97
2023-05-14T14:52:34.199Z,98864.56
2023-05-14T14:56:39.098Z,98872.44
2023-05-14T15:00:41.788Z,98868.88
2023-05-14T15:04:44.234Z,98873.84
2023-05-14T15:08:46.876Z,98875.72
2023-05-14T15:12:51.046Z,98867.75
2023-05-14T15:16:53.725Z,98870.75
2023-05-14T15:20:56.981Z,98875.22
2023-05-14T15:24:59.600Z,98870.06
2023-05-14T15:29:04.642Z,98876.16
2023-05-14T15:33:08.485Z,98865.44
2023-05-14T15:37:11.311Z,98855.75
2023-05-14T15:41:13.765Z,98854.47
2023-05-14T15:45:17.721Z,98858.41
2023-05-14T15:49:20.330Z,98856.50
2023-05-14T15:53:23.236Z,98853.84
2023-05-14T15:57:25.881Z,98851.22
2023-05-14T16:01:29.869Z,98858.31
2023-05-14T16:05:32.539Z,98870.66
2023-05-14T16:09:35.151Z,98874.31
2023-05-14T16:13:39.083Z,98880.69
2023-05-14T16:17:43.093Z,98886.69
2023-05-14T16:21:45.966Z,98905.59
2023-05-14T16:25:48.687Z,98901.19
2023-05-14T16:29:53.912Z,98940.78
2023-05-14T16:33:59.424Z,98933.47
2023-05-14T16:38:02.220Z,98919.56
2023-05-14T16:42:05.381Z,98914.75
2023-05-14T16:46:07.972Z,98914.84
2023-05-14T16:50:12.978Z,98902.00
2023-05-14T16:54:16.709Z,98890.78
2023-05-14T16:58:19.380Z,98880.31
2023-05-14T17:02:21.982Z,98899.34
2023-05-14T17:06:26.301Z,98885.38
2023-05-14T17:10:30.315Z,98908.44
2023-05-14T17:14:32.976Z,98911.41
2023-05-14T17:18:35.699Z,98916.28
2023-05-14T17:22:39.832Z,98915.47
2023-05-14T17:26:42.480Z,98920.78
2023-05-14T17:30:45.458Z,98928.50
2023-05-14T17:34:48.056Z,98930.66
2023-05-14T17:38:52.462Z,98933.44
2023-05-14T17:42:55.136Z,98933.66
2023-05-14T17:46:58.085Z,98936.00
2023-05-14T17:51:00.725Z,98927.59
2023-05-14T17:55:05.183Z,98934.25
2023-05-14T17:59:07.804Z,98939.22
2023-05-14T18:03:10.761Z,98940.69
2023-05-14T18:07:13.599Z,98943.81
2023-05-14T18:11:17.630Z,98941.88
2023-05-14T18:15:20.468Z,98944.00
2023-05-14T18:19:23.761Z,98952.00
2023-05-14T18:23:26.474Z,98951.88
2023-05-14T18:27:31.400Z,98949.84
2023-05-14T18:31:34.085Z,98944.78
2023-05-14T18:35:36.827Z,98948.56
2023-05-14T18:39:39.438Z,98939.00
2023-05-14T18:43:43.390Z,98942.09
2023-05-14T18:47:46.215Z,98941.13
2023-05-14T18:51:48.948Z,98940.66
2023-05-14T18:55:51.789Z,98952.94
2023-05-14T18:59:56.679Z,98958.94
2023-05-14T19:03:59.333Z,98972.03
2023-05-14T19:08:02.024Z,98968.44
2023-05-14T19:12:05.115Z,98966.25
2023-05-14T19:16:09.350Z,98974.19
2023-05-14T19:20:12.816Z,98989.41
2023-05-14T19:24:15.877Z,98982.56
2023-05-14T19:28:19.873Z,98988.09
2023-05-14T19:32:24.103Z,98988.69
2023-05-14T19:36:26.783Z,98980.97
2023-05-14T19:40:29.565Z,98989.16
2023-05-14T19:44:32.297Z,98998.22
2023-05-14T19:48:36.228Z,99010.47
2023-05-14T19:52:39.480Z,99017.25
2023-05-14T19:56:42.158Z,99021.09
2023-05-14T20:00:44.802Z,99023.19
2023-05-14T20:04:49.468Z,99024.25
2023-05-14T20:08:52.621Z,99016.81
2023-05-14T20:12:55.553Z,99007.53
2023-05-14T20:16:59.906Z,99007.00
2023-05-14T20:21:03.982Z,98996.13
2023-05-14T20:25:08.971Z,98990.84
2023-05-14T20:29:14.360Z,99000.13
2023-05-14T20:33:17.041Z,98988.19
2023-05-14T20:37:21.603Z,98982.06
2023-05-14T20:41:24.302Z,98990.81
2023-05-14T20:45:27.302Z,98978.34
2023-05-14T20:49:30.052Z,98977.84
2023-05-14T20:53:35.427Z,98976.78
2023-05-14T20:57:38.107Z,98966.16
2023-05-14T21:01:42.627Z,98952.09
2023-05-14T21:05:45.697Z,98953.16
2023-05-14T21:09:52.303Z,98960.31
2023-05-14T21:13:55.074Z,98956.88
2023-05-14T21:17:57.830Z,98948.91
2023-05-14T21:22:00.479Z,98950.47
2023-05-14T21:26:04.739Z,98950.22
2023-05-14T21:30:08.711Z,98947.00
2023-05-14T21:34:11.326Z,98950.72
2023-05-14T21:38:13.988Z,98948.59
2023-05-14T21:42:20.824Z,98935.91
2023-05-14T21:46:23.467Z,98942.00
2023-05-14T21:50:26.232Z,98939.91
2023-05-14T21:54:28.863Z,98942.16
2023-05-14T21:58:32.935Z,98940.69
2023-05-14T22:02:35.525Z,98937.75
2023-05-14T22:06:38.363Z,98943.03
2023-05-14T22:10:41.013Z,98946.00
2023-05-14T22:14:45.009Z,98952.06
2023-05-14T22:18:48.014Z,98950.41
2023-05-14T22:22:51.516Z,98947.31
2023-05-14T22:26:54.678Z,98955.88
2023-05-14T22:30:59.747Z,98947.44
2023-05-14T22:35:03.205Z,98938.31
2023-05-14T22:39:05.808Z,98941.97
2023-05-14T22:43:08.471Z,98940.00
2023-05-14T22:47:12.437Z,98939.31
2023-05-14T22:51:15.068Z,98936.72
2023-05-14T22:55:17.788Z,98931.50
2023-05-14T22:59:22.725Z,98930.75
2023-05-14T23:03:27.844Z,98928.88
2023-05-14T23:07:30.743Z,98928.00
2023-05-14T23:11:33.324Z,98922.47
2023-05-14T23:15:35.990Z,98927.06
2023-05-14T23:19:39.975Z,98918.78
2023-05-14T23:23:42.680Z,98931.16
2023-05-14T23:27:45.406Z,98918.94
2023-05-14T23:31:48.069Z,98916.03
2023-05-14T23:35:52.080Z,98929.13
2023-05-14T23:39:54.692Z,98915.78
2023-05-14T23:43:57.390Z,98913.97
2023-05-14T23:48:00.338Z,98905.72
2023-05-14T23:52:04.752Z,98911.56
2023-05-14T23:56:07.880Z,98903.31
